Tropical Cyclones
[Index]
Main Index Home Page Stock Weather Photos Extreme Storms Discussion Storm News and Storm Chasing Reports Tropical Cyclones / Hurricanes / Typhoons Weather Data and Links Wild Fires / Bushfires Weather Observation Techniques Weather Picture Catalogue Tornado Pictures and Reports Stock Video Footage and DVDs for sale
Season 2003-2004 Tropical Cyclone ABAIMBA Track Map
Season 2003-2004 Summaries (Operational Data): [AU] [SIO] [SPAC] [SH]
<<- Previous TC | 2003-2004 Season | Next TC ->>

click for intensity scale information  Lat/long Grid: Show Hide

 Date Labels: Show Hide

Operational Tropical Cyclone Data : JTWC Advisories

Name: ABAIMBA
Number: 0401

29 Sep 2003 06:00 UTC to 04 Oct 2003 18:00 UTC

    date/time    lat    long     hPa   cat  kts
2003-09-29 06    5.0    63.5    1006         25          
2003-09-29 12    4.3    63.2    1006         25          
2003-09-29 18    4.3    63.1    1006         25          
2003-09-30 00    4.3    64.6    1005         30          
2003-09-30 06    4.6    65.3    1003         30          
2003-09-30 12    4.4    65.2    1003         30          
2003-09-30 18    4.4    65.5    1003         30          
2003-10-01 00    4.4    66.1    1000         30          
2003-10-01 06    4.7    65.6     990    1    45          
2003-10-01 12    4.8    66.7     990    1    45          
2003-10-01 18    5.0    66.3     990    1    40          
2003-10-02 00    5.2    67.0     995    1    40          
2003-10-02 06    5.6    67.1     997    1    35          
2003-10-02 12    5.6    67.3     998         30          
2003-10-02 18    5.5    67.5     998         30          
2003-10-03 00    6.1    67.3     998         30          
2003-10-03 06    6.2    67.2     998         30          
2003-10-03 12    6.5    67.1     999         25          
2003-10-03 18    6.7    66.9    1000         25          
2003-10-04 00    6.5    66.7    1000         25          
2003-10-04 06    7.0    66.0    1002         20          
2003-10-04 12    6.1    64.7    1002         20          
2003-10-04 18    6.6    64.4                             
Winds are 10-min average.

Tropical cyclone tracks developed by Michael Bath using operational warnings and advisories and Google Maps.


[Australian Severe Weather index] [Copyright Notice] [Email Contacts] [Search This Site] [Privacy Policy]
Document: tropical_cyclone_abaimba.htm Updated: 28 May 2013